Time;durP1;ratioP1;P1;durP2;ratioP2;P2;SDS_P1;SDS_P2;PMS_P1;PMS_P2;Temp;Humidity;BMP_temperature;BMP_pressure;BME280_temperature;BME280_humidity;BME280_pressure;Samples;Min_cycle;Max_cycle;Signal;HPM_P1;HPM_P2
2023/11/21 00:00:33;;;;;;;0.10;0.10;;;;;;;9.20;72.48;101769.75;7352764;19;20015;-62
2023/11/21 00:02:59;;;;;;;0.10;0.10;;;;;;;9.28;72.58;101794.06;7358938;19;20010;-62
2023/11/21 00:05:24;;;;;;;0.05;0.05;;;;;;;9.20;72.46;101785.38;7355822;19;20014;-62
2023/11/21 00:07:49;;;;;;;0.10;0.10;;;;;;;9.36;72.60;101823.59;7357746;19;20015;-62
2023/11/21 00:10:15;;;;;;;0.00;0.00;;;;;;;9.34;72.53;101823.59;7358661;19;20006;-62
2023/11/21 00:12:41;;;;;;;0.00;0.00;;;;;;;9.34;72.30;101835.78;7355931;19;20029;-61
2023/11/21 00:15:11;;;;;;;0.05;0.05;;;;;;;9.30;72.58;101845.31;7358420;19;20011;-62
2023/11/21 00:17:37;;;;;;;0.00;0.00;;;;;;;9.29;72.73;101854.00;7355488;19;20006;-61
2023/11/21 00:20:06;;;;;;;0.00;0.00;;;;;;;9.30;72.90;101860.09;7358131;19;20030;-62
2023/11/21 00:22:35;;;;;;;0.00;0.00;;;;;;;9.26;73.26;101840.09;7361253;19;20013;-62
2023/11/21 00:25:01;;;;;;;0.05;0.05;;;;;;;9.08;72.99;101823.59;7364376;19;20014;-62
2023/11/21 00:27:26;;;;;;;0.10;0.10;;;;;;;9.24;73.04;101849.66;7357970;19;20802;-62
2023/11/21 00:29:51;;;;;;;0.10;0.10;;;;;;;8.80;72.78;101780.09;7356849;19;20663;-62
2023/11/21 00:32:17;;;;;;;0.10;0.10;;;;;;;9.22;72.65;101857.47;7348191;19;20056;-61
2023/11/21 00:34:42;;;;;;;0.08;0.08;;;;;;;9.09;73.29;101846.16;7356606;19;20015;-63
2023/11/21 00:37:08;;;;;;;0.03;0.03;;;;;;;9.14;72.92;101853.13;7360827;19;20005;-61
2023/11/21 00:39:35;;;;;;;0.10;0.10;;;;;;;9.04;73.27;101853.09;7357980;19;20006;-62
2023/11/21 00:42:00;;;;;;;0.10;0.10;;;;;;;9.13;73.33;101867.03;7356666;19;20565;-62
2023/11/21 00:44:26;;;;;;;0.10;0.10;;;;;;;9.09;73.16;101874.84;7359008;19;20011;-61
2023/11/21 00:46:51;;;;;;;0.10;0.10;;;;;;;9.12;73.27;101880.91;7355850;19;20006;-62
2023/11/21 00:49:16;;;;;;;0.10;0.10;;;;;;;9.09;73.37;101900.88;7356312;19;20018;-62
2023/11/21 00:51:42;;;;;;;0.00;0.00;;;;;;;9.08;73.29;101904.38;7358238;19;20029;-62
2023/11/21 00:54:07;;;;;;;0.10;0.10;;;;;;;9.03;73.29;101897.41;7357738;19;20007;-62
2023/11/21 00:56:33;;;;;;;0.00;0.00;;;;;;;9.04;73.36;101915.63;7354112;19;20007;-60
2023/11/21 00:58:59;;;;;;;0.10;0.10;;;;;;;9.04;72.97;101917.38;7360880;19;20010;-62
2023/11/21 01:01:24;;;;;;;0.10;0.10;;;;;;;8.98;73.04;101909.56;7355047;19;20035;-62
2023/11/21 01:03:50;;;;;;;0.10;0.10;;;;;;;8.99;72.81;101914.75;7356064;19;20015;-62
2023/11/21 01:06:16;;;;;;;0.10;0.10;;;;;;;8.88;72.43;101893.00;7356652;19;20014;-62
2023/11/21 01:08:42;;;;;;;0.10;0.10;;;;;;;8.91;72.62;101894.75;7351752;19;20006;-61
2023/11/21 01:11:12;;;;;;;0.10;0.10;;;;;;;8.96;72.98;101906.91;7359886;19;20691;-62
2023/11/21 01:13:38;;;;;;;0.10;0.10;;;;;;;8.94;72.78;101911.25;7358418;19;20043;-62
2023/11/21 01:16:06;;;;;;;0.00;0.00;;;;;;;8.90;72.86;101895.63;7366377;19;20645;-61
2023/11/21 01:18:31;;;;;;;0.10;0.10;;;;;;;8.92;72.78;101910.41;7364460;19;20014;-62
2023/11/21 01:20:57;;;;;;;0.00;0.00;;;;;;;8.72;72.88;101870.38;7365856;19;20019;-62
2023/11/21 01:23:22;;;;;;;0.08;0.08;;;;;;;8.90;73.45;101904.28;7367217;19;20014;-60
2023/11/21 01:25:48;;;;;;;0.00;0.00;;;;;;;8.86;73.22;101915.56;7361105;19;20006;-62
2023/11/21 01:28:13;;;;;;;0.10;0.10;;;;;;;8.86;72.80;101917.31;7364401;19;20529;-62
2023/11/21 01:30:39;;;;;;;0.05;0.05;;;;;;;8.84;72.62;101927.72;7355736;19;20025;-62
2023/11/21 01:33:04;;;;;;;0.10;0.10;;;;;;;8.84;72.89;101928.59;7365911;19;20018;-61
2023/11/21 01:35:30;;;;;;;0.10;0.10;;;;;;;8.75;72.78;101922.47;7359275;19;20074;-62
2023/11/21 01:37:55;;;;;;;0.10;0.10;;;;;;;8.82;72.76;101945.09;7367003;19;20036;-62
2023/11/21 01:40:21;;;;;;;0.10;0.10;;;;;;;8.83;72.91;101954.63;7353929;19;20072;-62
2023/11/21 01:42:48;;;;;;;0.10;0.10;;;;;;;8.72;72.80;101940.72;7358845;19;20598;-62
2023/11/21 01:45:13;;;;;;;0.10;0.10;;;;;;;8.79;72.97;101952.88;7363483;19;20011;-62
2023/11/21 01:47:41;;;;;;;0.10;0.10;;;;;;;8.80;72.93;101952.00;7363749;19;20403;-62
2023/11/21 01:50:08;;;;;;;0.10;0.10;;;;;;;8.77;73.33;101957.22;7369088;19;20089;-62
2023/11/21 01:52:38;;;;;;;0.00;0.00;;;;;;;8.71;73.18;101952.81;7364332;19;20010;-62
2023/11/21 01:55:06;;;;;;;0.00;0.00;;;;;;;8.72;73.08;101962.41;7358487;19;20741;-62
2023/11/21 01:57:31;;;;;;;0.03;0.03;;;;;;;8.71;73.41;101968.44;7363656;19;20412;-61
2023/11/21 01:59:58;;;;;;;0.10;0.10;;;;;;;8.63;73.29;101953.66;7361296;19;20015;-62
2023/11/21 02:02:24;;;;;;;0.05;0.05;;;;;;;8.54;73.26;101946.66;7360263;19;20426;-62
2023/11/21 02:04:49;;;;;;;0.03;0.03;;;;;;;8.51;73.69;101952.72;7363264;19;20015;-62
2023/11/21 02:07:15;;;;;;;0.10;0.10;;;;;;;8.54;73.67;101967.50;7359426;19;20362;-62
2023/11/21 02:09:42;;;;;;;0.10;0.10;;;;;;;8.65;73.54;101998.81;7360367;19;20830;-62
2023/11/21 02:12:10;;;;;;;0.10;0.10;;;;;;;8.55;73.93;101983.13;7361255;19;20010;-61
2023/11/21 02:14:36;;;;;;;0.05;0.05;;;;;;;8.55;74.07;101985.72;7363238;19;20038;-61
2023/11/21 02:17:03;;;;;;;0.10;0.10;;;;;;;8.60;74.02;101995.31;7364505;19;20158;-62
2023/11/21 02:19:29;;;;;;;0.10;0.10;;;;;;;8.49;73.94;101984.81;7362064;19;20023;-62
2023/11/21 02:21:59;;;;;;;0.00;0.00;;;;;;;8.56;73.95;101999.59;7362252;19;20022;-60
2023/11/21 02:24:24;;;;;;;0.10;0.10;;;;;;;8.53;74.42;102005.69;7363655;19;20042;-62
2023/11/21 02:26:51;;;;;;;0.10;0.10;;;;;;;8.52;74.22;102008.28;7363586;19;20008;-62
2023/11/21 02:29:18;;;;;;;0.10;0.10;;;;;;;8.47;74.23;101997.84;7363439;19;20024;-61
2023/11/21 02:31:47;;;;;;;0.10;0.10;;;;;;;8.48;73.82;102009.13;7355156;19;20011;-62
2023/11/21 02:34:16;;;;;;;0.10;0.10;;;;;;;8.33;73.87;101979.47;7362785;19;20842;-62
2023/11/21 02:36:43;;;;;;;0.10;0.10;;;;;;;8.44;73.30;101997.81;7355613;19;20014;-62
2023/11/21 02:39:10;;;;;;;0.10;0.10;;;;;;;8.44;73.51;102013.44;7354955;19;20011;-62
2023/11/21 02:41:35;;;;;;;0.03;0.03;;;;;;;8.37;73.33;102013.38;7361391;19;20010;-61
2023/11/21 02:44:01;;;;;;;0.00;0.00;;;;;;;8.33;73.24;102022.84;7359600;19;20790;-62
2023/11/21 02:46:26;;;;;;;0.00;0.00;;;;;;;8.31;73.71;102024.56;7366698;19;20010;-62
2023/11/21 02:48:54;;;;;;;0.10;0.10;;;;;;;8.24;73.44;102018.44;7359767;19;20911;-62
2023/11/21 02:51:20;;;;;;;0.10;0.10;;;;;;;8.35;73.86;102038.47;7358918;19;20043;-61
2023/11/21 02:53:46;;;;;;;0.00;0.00;;;;;;;8.33;73.66;102043.69;7362090;19;20058;-62
2023/11/21 02:56:12;;;;;;;0.00;0.00;;;;;;;8.29;73.96;102047.97;7357960;19;20011;-62
2023/11/21 02:58:37;;;;;;;0.08;0.08;;;;;;;8.28;73.63;102050.56;7356511;19;20017;-62
2023/11/21 03:01:05;;;;;;;0.00;0.00;;;;;;;8.29;73.82;102060.13;7365981;19;20123;-62
2023/11/21 03:03:30;;;;;;;;;;;;;;;8.31;74.06;102066.19;7364529;19;20027;-61
2023/11/21 03:05:56;;;;;;;0.10;0.10;;;;;;;8.25;74.17;102066.16;7363734;19;19918;-62
2023/11/21 03:08:21;;;;;;;0.00;0.00;;;;;;;8.18;73.68;102056.56;7360258;19;20010;-62
2023/11/21 03:10:47;;;;;;;0.10;0.10;;;;;;;8.17;73.84;102062.63;7355382;19;20348;-62
2023/11/21 03:13:12;;;;;;;0.00;0.00;;;;;;;8.16;73.46;102056.56;7364605;19;20122;-62
2023/11/21 03:15:37;;;;;;;0.00;0.00;;;;;;;8.15;73.36;102056.53;7366323;19;20026;-61
2023/11/21 03:18:05;;;;;;;0.10;0.10;;;;;;;8.16;73.78;102066.06;7364858;19;20034;-62
2023/11/21 03:20:30;;;;;;;0.10;0.10;;;;;;;8.15;73.96;102074.75;7361081;19;20018;-62
2023/11/21 03:22:56;;;;;;;0.10;0.10;;;;;;;8.13;73.81;102071.25;7359595;19;20010;-61
2023/11/21 03:25:23;;;;;;;0.05;0.05;;;;;;;8.07;73.62;102062.53;7362755;19;20557;-61
2023/11/21 03:27:49;;;;;;;0.10;0.10;;;;;;;8.12;73.75;102065.19;7367309;19;20134;-62
2023/11/21 03:30:15;;;;;;;0.10;0.10;;;;;;;8.10;73.76;102053.00;7363741;19;20557;-62
2023/11/21 03:32:40;;;;;;;0.10;0.10;;;;;;;7.98;73.90;102036.44;7363770;19;20014;-62
2023/11/21 03:35:06;;;;;;;0.10;0.10;;;;;;;8.13;73.76;102055.66;7367650;19;20069;-62
2023/11/21 03:37:31;;;;;;;0.10;0.10;;;;;;;8.10;73.41;102063.41;7361122;19;20485;-62
2023/11/21 03:39:56;;;;;;;0.10;0.10;;;;;;;8.02;73.58;102048.63;7360779;19;20015;-62
2023/11/21 03:42:22;;;;;;;0.10;0.10;;;;;;;8.09;73.52;102059.06;7353111;19;20065;-62
2023/11/21 03:44:47;;;;;;;0.10;0.10;;;;;;;8.12;73.92;102072.13;7361689;19;20018;-62
2023/11/21 03:47:13;;;;;;;0.10;0.10;;;;;;;8.11;73.89;102072.94;7358332;19;20033;-62
2023/11/21 03:49:38;;;;;;;0.00;0.00;;;;;;;8.07;73.62;102065.13;7360894;19;20748;-61
2023/11/21 03:52:04;;;;;;;0.00;0.00;;;;;;;7.90;73.54;102058.88;7361065;19;20006;-62
2023/11/21 03:54:30;;;;;;;0.10;0.10;;;;;;;8.02;73.56;102074.63;7363953;19;20456;-62
2023/11/21 03:56:55;;;;;;;0.10;0.10;;;;;;;8.13;73.76;102107.69;7357700;19;20024;-62
2023/11/21 03:59:24;;;;;;;0.10;0.10;;;;;;;8.06;74.00;102091.16;7368374;19;20018;-61
2023/11/21 04:01:49;;;;;;;0.10;0.10;;;;;;;8.07;73.67;102101.56;7365321;19;20018;-62
2023/11/21 04:04:15;;;;;;;0.00;0.00;;;;;;;8.09;74.08;102103.31;7363663;19;20924;-62
2023/11/21 04:06:41;;;;;;;0.10;0.10;;;;;;;7.94;73.93;102081.47;7363868;19;20070;-62
2023/11/21 04:09:06;;;;;;;0.10;0.10;;;;;;;8.08;74.24;102107.63;7358233;19;20661;-62
2023/11/21 04:11:32;;;;;;;0.10;0.10;;;;;;;7.99;74.26;102092.78;7369611;19;20010;-62
2023/11/21 04:13:57;;;;;;;0.10;0.10;;;;;;;7.99;74.43;102094.53;7367618;19;20017;-62
2023/11/21 04:16:22;;;;;;;0.10;0.10;;;;;;;7.92;74.22;102088.41;7368848;19;20006;-62
2023/11/21 04:18:48;;;;;;;0.00;0.00;;;;;;;8.04;74.42;102103.25;7343785;19;20014;-62
2023/11/21 04:21:13;;;;;;;0.17;0.17;;;;;;;7.97;74.32;102097.13;7365374;19;20089;-62
2023/11/21 04:23:40;;;;;;;0.10;0.10;;;;;;;7.90;74.40;102089.22;7358184;19;20518;-62
2023/11/21 04:26:05;;;;;;;0.10;0.10;;;;;;;7.98;74.79;102098.00;7355151;19;20014;-62
2023/11/21 04:28:31;;;;;;;0.10;0.10;;;;;;;7.98;74.47;102113.59;7358134;19;20014;-62
2023/11/21 04:30:56;;;;;;;0.10;0.10;;;;;;;7.90;75.04;102103.09;7367792;19;20034;-62
2023/11/21 04:33:22;;;;;;;0.10;0.10;;;;;;;7.94;75.01;102123.09;7354729;19;20066;-61
2023/11/21 04:35:48;;;;;;;0.00;0.00;;;;;;;7.93;74.82;102131.75;7361377;19;20006;-62
2023/11/21 04:38:13;;;;;;;0.10;0.10;;;;;;;7.87;74.94;102118.69;7359422;19;20086;-62
2023/11/21 04:40:39;;;;;;;0.00;0.00;;;;;;;7.83;75.32;102119.50;7361587;19;20044;-63
2023/11/21 04:43:04;;;;;;;0.10;0.10;;;;;;;7.78;75.05;102122.06;7359321;19;20002;-62
2023/11/21 04:45:30;;;;;;;0.10;0.10;;;;;;;7.88;75.24;102133.44;7360085;19;20006;-62
2023/11/21 04:47:56;;;;;;;0.05;0.05;;;;;;;7.70;75.30;102107.22;7361692;19;20523;-62
2023/11/21 04:50:21;;;;;;;0.10;0.10;;;;;;;7.84;75.40;102142.06;7368571;19;20010;-61
2023/11/21 04:52:47;;;;;;;0.10;0.10;;;;;;;7.85;75.50;102149.00;7369403;19;20010;-61
2023/11/21 04:55:12;;;;;;;0.10;0.10;;;;;;;7.86;75.67;102145.56;7364180;19;20006;-62
2023/11/21 04:57:39;;;;;;;0.05;0.05;;;;;;;7.86;75.64;102155.09;7370424;19;20074;-62
2023/11/21 05:00:05;;;;;;;0.10;0.10;;;;;;;7.83;75.40;102147.25;7370050;19;20954;-62
2023/11/21 05:02:33;;;;;;;0.10;0.10;;;;;;;7.85;75.73;102156.78;7366547;19;20015;-62
2023/11/21 05:04:59;;;;;;;0.10;0.10;;;;;;;7.78;75.52;102158.44;7368843;19;20002;-62
2023/11/21 05:07:28;;;;;;;0.05;0.05;;;;;;;7.74;75.68;102161.00;7374812;19;20816;-62
2023/11/21 05:09:56;;;;;;;0.10;0.10;;;;;;;7.71;75.54;102153.19;7360129;19;20014;-62
2023/11/21 05:12:25;;;;;;;0.10;0.10;;;;;;;7.70;75.94;102156.59;7370535;19;20014;-62
2023/11/21 05:14:51;;;;;;;0.05;0.05;;;;;;;7.83;76.04;102187.13;7362075;19;20010;-62
2023/11/21 05:17:16;;;;;;;0.10;0.10;;;;;;;7.73;75.75;102174.84;7371229;19;20013;-62
2023/11/21 05:19:42;;;;;;;0.10;0.10;;;;;;;7.82;76.11;102197.50;7361449;19;20011;-62
2023/11/21 05:22:08;;;;;;;0.00;0.00;;;;;;;7.62;75.72;102166.06;7366447;19;20025;-62
2023/11/21 05:24:34;;;;;;;0.10;0.10;;;;;;;7.75;76.02;102186.13;7360135;19;20763;-62
2023/11/21 05:27:00;;;;;;;0.00;0.00;;;;;;;7.64;76.00;102169.53;7367101;19;20010;-61
2023/11/21 05:29:25;;;;;;;0.10;0.10;;;;;;;7.62;75.81;102171.25;7348536;19;20006;-61
2023/11/21 05:31:51;;;;;;;0.10;0.10;;;;;;;7.76;75.76;102201.78;7367786;19;20861;-62
2023/11/21 05:34:16;;;;;;;0.10;0.10;;;;;;;7.62;75.76;102184.25;7371983;19;21038;-62
2023/11/21 05:36:45;;;;;;;0.10;0.10;;;;;;;7.71;76.07;102203.44;7374389;19;20494;-62
2023/11/21 05:39:11;;;;;;;0.05;0.05;;;;;;;7.77;75.87;102213.06;7367470;19;20026;-60
2023/11/21 05:41:36;;;;;;;0.10;0.10;;;;;;;7.75;75.72;102225.16;7368738;19;20018;-62
2023/11/21 05:44:02;;;;;;;0.00;0.00;;;;;;;7.76;75.97;102230.38;7369107;19;20010;-62
2023/11/21 05:46:27;;;;;;;0.10;0.10;;;;;;;7.73;75.98;102239.88;7369755;19;20026;-62
2023/11/21 05:48:52;;;;;;;0.10;0.10;;;;;;;7.73;75.66;102245.06;7360305;19;20010;-62
2023/11/21 05:51:18;;;;;;;0.10;0.10;;;;;;;7.46;75.61;102203.97;7363683;19;20040;-62
2023/11/21 05:53:44;;;;;;;0.10;0.10;;;;;;;7.73;75.61;102252.88;7360104;19;20758;-62
2023/11/21 05:56:09;;;;;;;0.10;0.10;;;;;;;7.59;75.89;102233.59;7362881;19;20107;-61
2023/11/21 05:58:35;;;;;;;0.10;0.10;;;;;;;7.41;76.12;102198.69;7351239;19;20011;-62
2023/11/21 06:01:00;;;;;;;0.03;0.03;;;;;;;7.62;76.12;102233.66;7367462;19;20479;-62
2023/11/21 06:03:25;;;;;;;0.10;0.10;;;;;;;7.69;75.74;102245.88;7366937;19;20498;-62
2023/11/21 06:05:51;;;;;;;0.00;0.00;;;;;;;7.66;75.94;102240.66;7374108;19;20025;-62
2023/11/21 06:08:16;;;;;;;0.10;0.10;;;;;;;7.51;75.76;102215.31;7360742;19;20011;-61
2023/11/21 06:10:43;;;;;;;0.00;0.00;;;;;;;7.58;75.87;102229.25;7368816;19;20485;-62
2023/11/21 06:13:10;;;;;;;0.10;0.10;;;;;;;7.52;76.13;102215.31;7362011;19;20102;-62
2023/11/21 06:15:35;;;;;;;0.10;0.10;;;;;;;7.63;75.88;102251.84;7361810;19;20661;-61
2023/11/21 06:18:01;;;;;;;0.10;0.10;;;;;;;7.62;76.00;102255.31;7366188;19;20011;-62
2023/11/21 06:20:27;;;;;;;0.10;0.10;;;;;;;7.64;76.05;102257.94;7365235;19;20006;-62
2023/11/21 06:22:53;;;;;;;0.10;0.10;;;;;;;7.63;75.91;102256.19;7362718;19;20117;-62
2023/11/21 06:25:19;;;;;;;0.10;0.10;;;;;;;7.59;76.20;102244.84;7366229;19;20010;-62
2023/11/21 06:27:48;;;;;;;0.10;0.10;;;;;;;7.61;75.85;102248.38;7364928;19;20010;-62
2023/11/21 06:30:15;;;;;;;0.10;0.10;;;;;;;7.62;76.00;102254.44;7365141;19;20007;-62
2023/11/21 06:32:41;;;;;;;0.10;0.10;;;;;;;7.63;76.26;102257.06;7358087;19;20034;-61
2023/11/21 06:35:10;;;;;;;0.10;0.10;;;;;;;7.63;75.94;102251.84;7358678;19;20010;-62
2023/11/21 06:37:36;;;;;;;0.10;0.10;;;;;;;7.48;76.28;102230.84;7341532;19;21609;-62
2023/11/21 06:40:03;;;;;;;0.10;0.10;;;;;;;7.61;76.29;102252.72;7364766;19;20018;-62
2023/11/21 06:42:29;;;;;;;0.10;0.10;;;;;;;7.63;76.19;102264.84;7361242;19;20086;-61
2023/11/21 06:44:57;;;;;;;0.00;0.00;;;;;;;7.64;76.30;102265.72;7367385;19;20081;-62
2023/11/21 06:47:26;;;;;;;0.00;0.00;;;;;;;7.45;76.37;102247.28;7367267;19;20015;-62
2023/11/21 06:49:52;;;;;;;0.10;0.10;;;;;;;7.60;76.12;102287.31;7362598;19;20015;-62
2023/11/21 06:52:20;;;;;;;0.10;0.10;;;;;;;7.59;76.36;102280.38;7357962;19;20106;-62
2023/11/21 06:54:47;;;;;;;0.10;0.10;;;;;;;7.52;76.09;102275.09;7366375;19;20013;-62
2023/11/21 06:57:13;;;;;;;0.10;0.10;;;;;;;7.30;76.12;102247.06;7353730;19;20010;-62
2023/11/21 06:59:38;;;;;;;0.08;0.08;;;;;;;7.43;76.35;102277.56;7360123;19;20010;-62
2023/11/21 07:02:06;;;;;;;0.00;0.00;;;;;;;7.56;75.98;102306.34;7363987;19;20006;-62
2023/11/21 07:04:32;;;;;;;0.10;0.10;;;;;;;7.51;75.87;102304.56;7370986;19;20006;-62
2023/11/21 07:06:58;;;;;;;0.05;0.05;;;;;;;7.45;76.11;102307.06;7370956;19;20034;-62
2023/11/21 07:09:24;;;;;;;0.10;0.10;;;;;;;7.48;75.70;102309.69;7364339;19;20010;-62
2023/11/21 07:11:51;;;;;;;0.10;0.10;;;;;;;7.39;76.14;102299.13;7355381;19;20018;-62
2023/11/21 07:14:19;;;;;;;0.10;0.10;;;;;;;7.28;76.12;102285.09;7361370;19;20749;-61
2023/11/21 07:16:45;;;;;;;;;;;;;;;7.45;75.89;102301.88;7368512;19;20017;-62
2023/11/21 07:19:10;;;;;;;0.10;0.10;;;;;;;7.39;76.07;102304.34;7369396;19;19923;-62
2023/11/21 07:21:36;;;;;;;0.00;0.00;;;;;;;7.39;75.91;102319.94;7365205;19;20011;-62
2023/11/21 07:24:03;;;;;;;0.10;0.10;;;;;;;7.30;76.47;102319.81;7361695;19;20534;-62
2023/11/21 07:26:29;;;;;;;0.10;0.10;;;;;;;7.34;76.20;102331.09;7368725;19;20118;-62
2023/11/21 07:28:55;;;;;;;0.10;0.10;;;;;;;7.14;76.49;102310.84;7362130;19;20525;-62
2023/11/21 07:31:20;;;;;;;0.00;0.00;;;;;;;7.24;76.49;102348.25;7364051;19;20036;-62
2023/11/21 07:33:49;;;;;;;0.05;0.05;;;;;;;7.23;76.45;102349.13;7364381;19;20010;-62
2023/11/21 07:36:15;;;;;;;0.10;0.10;;;;;;;7.21;76.18;102350.81;7364734;19;20010;-62
2023/11/21 07:38:42;;;;;;;0.00;0.00;;;;;;;7.18;76.24;102340.38;7358928;19;20009;-62
2023/11/21 07:41:10;;;;;;;0.03;0.03;;;;;;;7.15;76.27;102337.72;7362690;19;21107;-62
2023/11/21 07:43:35;;;;;;;0.00;0.00;;;;;;;7.13;76.46;102336.81;7359256;19;20051;-60
2023/11/21 07:46:05;;;;;;;0.10;0.10;;;;;;;7.11;76.68;102343.72;7364476;19;20785;-61
2023/11/21 07:48:31;;;;;;;0.10;0.10;;;;;;;7.00;76.62;102336.59;7361336;19;20030;-62
2023/11/21 07:50:58;;;;;;;0.00;0.00;;;;;;;7.04;76.76;102355.69;7359885;19;20660;-62
2023/11/21 07:53:25;;;;;;;0.10;0.10;;;;;;;7.03;76.48;102377.31;7363392;19;20022;-61
2023/11/21 07:55:51;;;;;;;0.00;0.00;;;;;;;6.90;76.51;102360.66;7360007;19;20010;-62
2023/11/21 07:58:16;;;;;;;0.10;0.10;;;;;;;7.00;76.19;102382.50;7358080;19;20015;-62
2023/11/21 08:00:42;;;;;;;0.00;0.00;;;;;;;6.79;76.36;102351.75;7360286;19;20027;-63
2023/11/21 08:03:07;;;;;;;0.05;0.05;;;;;;;6.91;76.55;102374.50;7361154;19;20025;-62
2023/11/21 08:05:33;;;;;;;0.00;0.00;;;;;;;6.93;76.43;102381.47;7362917;19;20014;-62
2023/11/21 08:07:58;;;;;;;0.10;0.10;;;;;;;6.79;76.26;102369.94;7364728;19;20590;-62
2023/11/21 08:10:23;;;;;;;0.10;0.10;;;;;;;6.91;76.54;102387.50;7373373;19;20011;-62
2023/11/21 08:12:50;;;;;;;0.10;0.10;;;;;;;6.83;76.49;102389.06;7358812;19;20013;-62
2023/11/21 08:15:15;;;;;;;0.00;0.00;;;;;;;6.86;76.82;102405.59;7363744;19;20006;-62
2023/11/21 08:17:41;;;;;;;0.10;0.10;;;;;;;6.81;76.40;102416.72;7349596;19;20010;-62
2023/11/21 08:20:08;;;;;;;0.00;0.00;;;;;;;6.69;76.88;102393.97;7363772;19;20010;-62
2023/11/21 08:22:34;;;;;;;0.03;0.03;;;;;;;6.70;76.60;102387.94;7360587;19;20007;-62
2023/11/21 08:24:59;;;;;;;0.10;0.10;;;;;;;6.74;76.60;102389.75;7373705;19;20332;-62
2023/11/21 08:27:25;;;;;;;0.10;0.10;;;;;;;6.82;76.82;102398.56;7372445;19;20021;-62
2023/11/21 08:29:52;;;;;;;0.10;0.10;;;;;;;6.76;76.73;102388.06;7372218;19;20017;-62
2023/11/21 08:32:17;;;;;;;0.10;0.10;;;;;;;6.81;76.86;102412.41;7365523;19;20317;-62
2023/11/21 08:34:44;;;;;;;0.00;0.00;;;;;;;6.67;76.97;102393.06;7370345;19;20472;-62
2023/11/21 08:37:10;;;;;;;0.10;0.10;;;;;;;6.81;76.50;102422.78;7345735;19;20348;-62
2023/11/21 08:39:37;;;;;;;0.00;0.00;;;;;;;6.79;76.93;102427.06;7371024;19;20034;-62
2023/11/21 08:42:03;;;;;;;0.10;0.10;;;;;;;6.85;76.95;102442.78;7368989;19;20023;-63
2023/11/21 08:44:30;;;;;;;0.10;0.10;;;;;;;6.84;76.75;102435.81;7368232;19;20822;-62
2023/11/21 08:46:55;;;;;;;0.10;0.10;;;;;;;6.87;76.62;102437.63;7365759;19;20034;-61
2023/11/21 08:49:21;;;;;;;0.00;0.00;;;;;;;6.85;76.48;102442.78;7363579;19;20010;-62
2023/11/21 08:51:46;;;;;;;0.10;0.10;;;;;;;6.79;76.83;102436.56;7375479;19;20702;-62
2023/11/21 08:54:12;;;;;;;0.10;0.10;;;;;;;6.37;76.54;102368.22;7379007;19;20509;-62
2023/11/21 08:56:37;;;;;;;0.03;0.03;;;;;;;6.85;76.98;102449.69;7376247;19;20013;-62
2023/11/21 08:59:03;;;;;;;0.03;0.03;;;;;;;6.55;76.93;102405.81;7378650;19;20029;-62
2023/11/21 09:01:31;;;;;;;0.10;0.10;;;;;;;6.94;76.93;102476.72;7369732;19;20486;-62
2023/11/21 09:03:57;;;;;;;0.00;0.00;;;;;;;6.98;76.85;102488.03;7368157;19;20010;-62
2023/11/21 09:06:23;;;;;;;0.10;0.10;;;;;;;6.91;76.82;102466.28;7366451;19;20007;-62
2023/11/21 09:08:48;;;;;;;0.10;0.10;;;;;;;6.90;76.99;102456.75;7367460;19;20006;-62
2023/11/21 09:11:13;;;;;;;0.10;0.10;;;;;;;6.96;77.23;102441.28;7367352;19;20022;-62
2023/11/21 09:13:39;;;;;;;0.10;0.10;;;;;;;7.27;77.20;102470.44;7368953;19;20009;-62
2023/11/21 09:16:05;;;;;;;0.10;0.10;;;;;;;7.43;77.37;102469.88;7331805;19;20559;-62
2023/11/21 09:18:31;;;;;;;0.10;0.10;;;;;;;7.58;76.96;102466.69;7365292;19;20010;-62
2023/11/21 09:20:56;;;;;;;0.10;0.10;;;;;;;7.73;76.74;102460.88;7363362;19;20009;-62
2023/11/21 09:23:22;;;;;;;0.10;0.10;;;;;;;7.81;76.45;102448.91;7368256;19;20014;-62
2023/11/21 09:25:49;;;;;;;0.10;0.10;;;;;;;8.02;76.09;102459.66;7371217;19;20105;-61
2023/11/21 09:28:15;;;;;;;0.10;0.10;;;;;;;8.16;76.19;102461.56;7365620;19;20024;-62
2023/11/21 09:30:41;;;;;;;0.10;0.10;;;;;;;8.21;76.35;102454.72;7365886;19;20034;-62
2023/11/21 09:33:06;;;;;;;0.10;0.10;;;;;;;8.34;76.10;102459.25;7365349;19;20010;-62
2023/11/21 09:35:32;;;;;;;0.10;0.10;;;;;;;8.54;76.71;102467.41;7359762;19;20030;-62
2023/11/21 09:37:57;;;;;;;0.00;0.00;;;;;;;8.62;75.55;102467.50;7365555;19;20553;-62
2023/11/21 09:40:23;;;;;;;0.08;0.08;;;;;;;8.80;75.63;102481.63;7366330;19;20021;-62
2023/11/21 09:42:58;;;;;;;0.10;0.10;;;;;;;8.98;75.70;102480.16;7362584;19;20010;-62
2023/11/21 09:45:29;;;;;;;0.10;0.10;;;;;;;9.03;74.80;102461.09;7363677;19;20729;-62
2023/11/21 09:47:55;;;;;;;0.10;0.10;;;;;;;9.20;74.96;102479.53;7366667;19;20116;-61
2023/11/21 09:50:22;;;;;;;0.10;0.10;;;;;;;9.32;74.70;102473.56;7359171;19;20033;-62
2023/11/21 09:53:00;;;;;;;0.00;0.00;;;;;;;9.45;74.36;102482.41;7366825;19;20029;-61
2023/11/21 09:55:29;;;;;;;0.10;0.10;;;;;;;9.62;74.31;102476.50;7362899;19;20014;-61
2023/11/21 09:57:56;;;;;;;0.10;0.10;;;;;;;9.67;74.27;102460.88;7366520;19;20026;-63
2023/11/21 10:00:23;;;;;;;0.10;0.10;;;;;;;9.86;74.20;102472.38;7365116;19;20041;-62
2023/11/21 10:02:49;;;;;;;0.10;0.10;;;;;;;10.00;73.73;102469.88;7370038;19;20018;-62
2023/11/21 10:05:17;;;;;;;0.10;0.10;;;;;;;10.11;73.01;102466.47;7365309;19;20014;-62
2023/11/21 10:07:47;;;;;;;0.10;0.10;;;;;;;10.36;72.74;102474.53;7364024;19;20049;-62
2023/11/21 10:10:17;;;;;;;0.10;0.10;;;;;;;10.60;72.81;102474.69;7364647;19;20018;-62
2023/11/21 10:12:46;;;;;;;0.10;0.10;;;;;;;10.80;72.22;102464.34;7359868;19;20018;-62
2023/11/21 10:15:16;;;;;;;0.10;0.10;;;;;;;11.05;71.72;102457.47;7369104;19;20026;-62
2023/11/21 10:17:45;;;;;;;0.00;0.00;;;;;;;11.31;71.86;102464.50;7362842;19;20011;-63
2023/11/21 10:20:13;;;;;;;0.10;0.10;;;;;;;11.57;71.27;102460.19;7363728;19;20014;-62
2023/11/21 10:22:43;;;;;;;0.20;0.20;;;;;;;11.76;70.95;102460.19;7362624;19;20013;-62
2023/11/21 10:25:14;;;;;;;0.10;0.10;;;;;;;12.03;70.39;102468.09;7366984;19;20010;-62
2023/11/21 10:27:41;;;;;;;0.10;0.10;;;;;;;12.23;69.49;102457.63;7361457;19;20010;-62
2023/11/21 10:30:15;;;;;;;0.10;0.10;;;;;;;12.48;69.17;102461.06;7366865;19;20011;-62
2023/11/21 10:32:41;;;;;;;0.10;0.10;;;;;;;12.69;69.01;102453.13;7363205;19;20482;-62
2023/11/21 10:35:10;;;;;;;0.10;0.10;;;;;;;12.98;68.88;102449.53;7367635;19;20014;-62
2023/11/21 10:37:39;;;;;;;0.10;0.10;;;;;;;13.20;68.34;102463.41;7356702;19;20832;-62
2023/11/21 10:40:12;;;;;;;0.10;0.10;;;;;;;13.41;68.64;102471.16;7361365;19;20073;-62
2023/11/21 10:42:39;;;;;;;0.10;0.10;;;;;;;13.56;67.34;102469.34;7362523;19;20021;-62
2023/11/21 10:45:14;;;;;;;0.10;0.10;;;;;;;13.85;67.62;102482.25;7370329;19;20486;-62
2023/11/21 10:47:44;;;;;;;0.10;0.10;;;;;;;14.06;67.45;102484.69;7365501;19;20010;-62
2023/11/21 10:50:11;;;;;;;0.10;0.10;;;;;;;14.22;66.03;102490.69;7359928;19;20499;-62
2023/11/21 10:52:39;;;;;;;0.10;0.10;;;;;;;14.33;66.15;102472.19;7360570;19;20063;-62
2023/11/21 10:55:21;;;;;;;0.10;0.10;;;;;;;14.74;67.42;102485.78;7364296;19;20963;-63
2023/11/21 10:57:49;;;;;;;0.10;0.10;;;;;;;14.91;65.81;102484.72;7366148;19;20706;-63
2023/11/21 11:00:16;;;;;;;0.10;0.10;;;;;;;15.09;65.30;102476.59;7357094;19;20014;-62
2023/11/21 11:02:42;;;;;;;0.10;0.10;;;;;;;15.24;64.87;102486.91;7362505;19;20014;-62
2023/11/21 11:05:11;;;;;;;0.10;0.10;;;;;;;15.44;64.61;102491.03;7356281;19;20030;-62
2023/11/21 11:07:41;;;;;;;0.10;0.10;;;;;;;15.67;64.49;102486.34;7363725;19;20010;-62
2023/11/21 11:10:14;;;;;;;0.10;0.10;;;;;;;15.87;63.59;102503.59;7362007;19;20014;-62
2023/11/21 11:12:41;;;;;;;0.10;0.10;;;;;;;16.04;63.66;102501.56;7362233;19;20015;-62
2023/11/21 11:15:09;;;;;;;0.10;0.10;;;;;;;16.23;63.47;102492.44;7359291;19;20014;-62
2023/11/21 11:17:38;;;;;;;;;;;;;;;16.61;69.11;102482.94;7357161;19;20044;-63
2023/11/21 11:20:06;;;;;;;0.10;0.10;;;;;;;16.66;62.91;102475.78;7362607;19;19939;-62
2023/11/21 11:22:47;;;;;;;0.10;0.10;;;;;;;16.94;64.94;102475.28;7359387;19;20010;-62
2023/11/21 11:25:16;;;;;;;0.10;0.10;;;;;;;17.03;62.60;102469.78;7361427;19;20010;-62
2023/11/21 11:28:03;;;;;;;0.10;0.10;;;;;;;17.18;63.97;102474.72;7359814;19;20622;-62
2023/11/21 11:30:46;;;;;;;0.10;0.10;;;;;;;17.27;61.79;102477.19;7359668;19;20015;-62